sensor_id;sensor_type;location;lat;lon;timestamp;temperature;humidity
2543;DHT22;1116;51.502;7.414;2023-11-21T00:02:06;8.80;99.90
2543;DHT22;1116;51.502;7.414;2023-11-21T00:04:36;8.90;99.90
2543;DHT22;1116;51.502;7.414;2023-11-21T00:07:09;8.90;99.90
2543;DHT22;1116;51.502;7.414;2023-11-21T00:09:39;8.90;99.90
2543;DHT22;1116;51.502;7.414;2023-11-21T00:12:09;9.00;99.90
2543;DHT22;1116;51.502;7.414;2023-11-21T00:14:40;9.00;99.90
2543;DHT22;1116;51.502;7.414;2023-11-21T00:17:10;8.90;99.90
2543;DHT22;1116;51.502;7.414;2023-11-21T00:19:40;8.90;99.90
2543;DHT22;1116;51.502;7.414;2023-11-21T00:22:13;8.90;99.90
2543;DHT22;1116;51.502;7.414;2023-11-21T00:24:43;9.00;99.90
2543;DHT22;1116;51.502;7.414;2023-11-21T00:27:13;8.90;99.90
2543;DHT22;1116;51.502;7.414;2023-11-21T00:29:43;8.90;99.90
2543;DHT22;1116;51.502;7.414;2023-11-21T00:32:13;8.90;99.90
2543;DHT22;1116;51.502;7.414;2023-11-21T00:34:43;8.90;99.90
2543;DHT22;1116;51.502;7.414;2023-11-21T00:37:15;8.90;99.90
2543;DHT22;1116;51.502;7.414;2023-11-21T00:39:45;9.00;99.90
2543;DHT22;1116;51.502;7.414;2023-11-21T00:42:15;9.00;99.90
2543;DHT22;1116;51.502;7.414;2023-11-21T00:44:45;9.00;99.90
2543;DHT22;1116;51.502;7.414;2023-11-21T00:47:15;9.00;99.90
2543;DHT22;1116;51.502;7.414;2023-11-21T00:49:45;9.00;99.90
2543;DHT22;1116;51.502;7.414;2023-11-21T00:52:18;9.10;99.90
2543;DHT22;1116;51.502;7.414;2023-11-21T00:54:48;9.10;99.90
2543;DHT22;1116;51.502;7.414;2023-11-21T00:57:18;9.10;99.90
2543;DHT22;1116;51.502;7.414;2023-11-21T00:59:48;9.10;99.90
2543;DHT22;1116;51.502;7.414;2023-11-21T01:02:18;9.20;99.90
2543;DHT22;1116;51.502;7.414;2023-11-21T01:04:48;9.20;99.90
2543;DHT22;1116;51.502;7.414;2023-11-21T01:07:20;9.30;99.90
2543;DHT22;1116;51.502;7.414;2023-11-21T01:09:51;9.30;99.90
2543;DHT22;1116;51.502;7.414;2023-11-21T01:12:21;9.30;99.90
2543;DHT22;1116;51.502;7.414;2023-11-21T01:14:52;9.30;99.90
2543;DHT22;1116;51.502;7.414;2023-11-21T01:17:22;9.30;99.90
2543;DHT22;1116;51.502;7.414;2023-11-21T01:19:52;9.40;99.90
2543;DHT22;1116;51.502;7.414;2023-11-21T01:22:25;9.40;99.90
2543;DHT22;1116;51.502;7.414;2023-11-21T01:24:55;9.40;99.90
2543;DHT22;1116;51.502;7.414;2023-11-21T01:27:25;9.50;99.90
2543;DHT22;1116;51.502;7.414;2023-11-21T01:29:55;9.50;99.90
2543;DHT22;1116;51.502;7.414;2023-11-21T01:32:25;9.50;99.90
2543;DHT22;1116;51.502;7.414;2023-11-21T01:34:55;9.50;99.90
2543;DHT22;1116;51.502;7.414;2023-11-21T01:37:28;9.50;99.90
2543;DHT22;1116;51.502;7.414;2023-11-21T01:39:58;9.50;99.90
2543;DHT22;1116;51.502;7.414;2023-11-21T01:42:29;9.50;99.90
2543;DHT22;1116;51.502;7.414;2023-11-21T01:44:59;9.50;99.90
2543;DHT22;1116;51.502;7.414;2023-11-21T01:47:32;9.50;99.90
2543;DHT22;1116;51.502;7.414;2023-11-21T01:50:03;9.60;99.90
2543;DHT22;1116;51.502;7.414;2023-11-21T01:52:37;9.60;99.90
2543;DHT22;1116;51.502;7.414;2023-11-21T01:55:08;9.60;99.90
2543;DHT22;1116;51.502;7.414;2023-11-21T01:57:45;9.60;99.90
2543;DHT22;1116;51.502;7.414;2023-11-21T02:00:16;9.60;99.90
2543;DHT22;1116;51.502;7.414;2023-11-21T02:02:47;9.60;99.90
2543;DHT22;1116;51.502;7.414;2023-11-21T02:05:19;9.60;99.90
2543;DHT22;1116;51.502;7.414;2023-11-21T02:07:51;9.60;99.90
2543;DHT22;1116;51.502;7.414;2023-11-21T02:10:21;9.60;99.90
2543;DHT22;1116;51.502;7.414;2023-11-21T02:12:52;9.60;99.90
2543;DHT22;1116;51.502;7.414;2023-11-21T02:15:23;9.60;99.90
2543;DHT22;1116;51.502;7.414;2023-11-21T02:17:56;9.60;99.90
2543;DHT22;1116;51.502;7.414;2023-11-21T02:20:27;9.50;99.90
2543;DHT22;1116;51.502;7.414;2023-11-21T02:22:59;9.60;99.90
2543;DHT22;1116;51.502;7.414;2023-11-21T02:25:31;9.50;99.90
2543;DHT22;1116;51.502;7.414;2023-11-21T02:28:02;9.50;99.90
2543;DHT22;1116;51.502;7.414;2023-11-21T02:30:34;9.60;99.90
2543;DHT22;1116;51.502;7.414;2023-11-21T02:33:04;9.50;99.90
2543;DHT22;1116;51.502;7.414;2023-11-21T02:35:34;9.50;99.90
2543;DHT22;1116;51.502;7.414;2023-11-21T02:38:07;9.40;99.90
2543;DHT22;1116;51.502;7.414;2023-11-21T02:40:37;9.40;99.90
2543;DHT22;1116;51.502;7.414;2023-11-21T02:43:07;9.50;99.90
2543;DHT22;1116;51.502;7.414;2023-11-21T02:45:37;9.50;99.90
2543;DHT22;1116;51.502;7.414;2023-11-21T02:48:08;9.50;99.90
2543;DHT22;1116;51.502;7.414;2023-11-21T02:50:38;9.50;99.90
2543;DHT22;1116;51.502;7.414;2023-11-21T02:53:12;9.50;99.90
2543;DHT22;1116;51.502;7.414;2023-11-21T02:55:42;9.50;99.90
2543;DHT22;1116;51.502;7.414;2023-11-21T02:58:12;9.50;99.90
2543;DHT22;1116;51.502;7.414;2023-11-21T03:00:42;9.50;99.90
2543;DHT22;1116;51.502;7.414;2023-11-21T03:03:13;9.50;99.90
2543;DHT22;1116;51.502;7.414;2023-11-21T03:05:43;9.50;99.90
2543;DHT22;1116;51.502;7.414;2023-11-21T03:08:15;9.50;99.90
2543;DHT22;1116;51.502;7.414;2023-11-21T03:10:45;9.50;99.90
2543;DHT22;1116;51.502;7.414;2023-11-21T03:13:15;9.60;99.90
2543;DHT22;1116;51.502;7.414;2023-11-21T03:15:45;9.60;99.90
2543;DHT22;1116;51.502;7.414;2023-11-21T03:18:15;9.60;99.90
2543;DHT22;1116;51.502;7.414;2023-11-21T03:20:46;9.50;99.90
2543;DHT22;1116;51.502;7.414;2023-11-21T03:23:18;9.60;99.90
2543;DHT22;1116;51.502;7.414;2023-11-21T03:25:48;9.70;99.90
2543;DHT22;1116;51.502;7.414;2023-11-21T03:28:18;9.70;99.90
2543;DHT22;1116;51.502;7.414;2023-11-21T03:30:48;9.70;99.90
2543;DHT22;1116;51.502;7.414;2023-11-21T03:33:18;9.70;99.90
2543;DHT22;1116;51.502;7.414;2023-11-21T03:35:48;9.70;99.90
2543;DHT22;1116;51.502;7.414;2023-11-21T03:38:22;9.70;99.90
2543;DHT22;1116;51.502;7.414;2023-11-21T03:40:52;9.70;99.90
2543;DHT22;1116;51.502;7.414;2023-11-21T03:43:22;9.70;99.90
2543;DHT22;1116;51.502;7.414;2023-11-21T03:45:52;9.90;99.90
2543;DHT22;1116;51.502;7.414;2023-11-21T03:48:22;9.70;99.90
2543;DHT22;1116;51.502;7.414;2023-11-21T03:50:52;9.80;99.90
2543;DHT22;1116;51.502;7.414;2023-11-21T03:53:24;9.80;99.90
2543;DHT22;1116;51.502;7.414;2023-11-21T03:55:55;9.80;99.90
2543;DHT22;1116;51.502;7.414;2023-11-21T03:58:22;9.80;99.90
2543;DHT22;1116;51.502;7.414;2023-11-21T04:00:52;9.90;99.90
2543;DHT22;1116;51.502;7.414;2023-11-21T04:03:22;9.60;99.90
2543;DHT22;1116;51.502;7.414;2023-11-21T04:05:52;9.80;99.90
2543;DHT22;1116;51.502;7.414;2023-11-21T04:08:24;9.80;99.90
2543;DHT22;1116;51.502;7.414;2023-11-21T04:10:55;9.80;99.90
2543;DHT22;1116;51.502;7.414;2023-11-21T04:13:25;9.80;99.90
2543;DHT22;1116;51.502;7.414;2023-11-21T04:15:54;9.80;99.90
2543;DHT22;1116;51.502;7.414;2023-11-21T04:18:25;9.80;99.90
2543;DHT22;1116;51.502;7.414;2023-11-21T04:20:55;9.80;99.90
2543;DHT22;1116;51.502;7.414;2023-11-21T04:23:29;9.80;99.90
2543;DHT22;1116;51.502;7.414;2023-11-21T04:26:00;9.80;99.90
2543;DHT22;1116;51.502;7.414;2023-11-21T04:28:29;9.80;99.90
2543;DHT22;1116;51.502;7.414;2023-11-21T04:30:59;9.80;99.90
2543;DHT22;1116;51.502;7.414;2023-11-21T04:33:29;9.70;99.90
2543;DHT22;1116;51.502;7.414;2023-11-21T04:35:59;9.70;99.90
2543;DHT22;1116;51.502;7.414;2023-11-21T04:38:31;9.70;99.90
2543;DHT22;1116;51.502;7.414;2023-11-21T04:41:01;9.70;99.90
2543;DHT22;1116;51.502;7.414;2023-11-21T04:43:31;9.70;99.90
2543;DHT22;1116;51.502;7.414;2023-11-21T04:46:01;9.60;99.90
2543;DHT22;1116;51.502;7.414;2023-11-21T04:48:31;9.70;99.90
2543;DHT22;1116;51.502;7.414;2023-11-21T04:51:01;9.60;99.90
2543;DHT22;1116;51.502;7.414;2023-11-21T04:53:34;9.60;99.90
2543;DHT22;1116;51.502;7.414;2023-11-21T04:56:05;9.60;99.90
2543;DHT22;1116;51.502;7.414;2023-11-21T04:58:35;9.50;99.90
2543;DHT22;1116;51.502;7.414;2023-11-21T05:01:07;9.40;99.90
2543;DHT22;1116;51.502;7.414;2023-11-21T05:03:38;9.40;99.90
2543;DHT22;1116;51.502;7.414;2023-11-21T05:06:10;9.40;99.90
2543;DHT22;1116;51.502;7.414;2023-11-21T05:08:43;9.30;99.90
2543;DHT22;1116;51.502;7.414;2023-11-21T05:11:23;9.20;99.90
2543;DHT22;1116;51.502;7.414;2023-11-21T05:13:53;9.20;99.90
2543;DHT22;1116;51.502;7.414;2023-11-21T05:16:25;9.10;99.90
2543;DHT22;1116;51.502;7.414;2023-11-21T05:18:57;9.00;99.90
2543;DHT22;1116;51.502;7.414;2023-11-21T05:21:28;9.00;98.50
2543;DHT22;1116;51.502;7.414;2023-11-21T05:24:02;8.90;97.70
2543;DHT22;1116;51.502;7.414;2023-11-21T05:26:34;8.80;96.80
2543;DHT22;1116;51.502;7.414;2023-11-21T05:29:04;8.80;96.60
2543;DHT22;1116;51.502;7.414;2023-11-21T05:31:34;8.80;95.70
2543;DHT22;1116;51.502;7.414;2023-11-21T05:34:04;8.70;93.80
2543;DHT22;1116;51.502;7.414;2023-11-21T05:36:34;8.70;95.00
2543;DHT22;1116;51.502;7.414;2023-11-21T05:39:07;8.60;94.80
2543;DHT22;1116;51.502;7.414;2023-11-21T05:41:38;8.60;96.90
2543;DHT22;1116;51.502;7.414;2023-11-21T05:44:10;8.30;94.30
2543;DHT22;1116;51.502;7.414;2023-11-21T05:46:41;8.50;96.40
2543;DHT22;1116;51.502;7.414;2023-11-21T05:49:11;8.60;98.70
2543;DHT22;1116;51.502;7.414;2023-11-21T05:51:42;8.50;96.60
2543;DHT22;1116;51.502;7.414;2023-11-21T05:54:15;8.50;98.10
2543;DHT22;1116;51.502;7.414;2023-11-21T05:56:44;8.50;96.80
2543;DHT22;1116;51.502;7.414;2023-11-21T05:59:14;8.50;96.80
2543;DHT22;1116;51.502;7.414;2023-11-21T06:01:49;8.50;98.00
2543;DHT22;1116;51.502;7.414;2023-11-21T06:04:19;8.50;97.20
2543;DHT22;1116;51.502;7.414;2023-11-21T06:06:53;8.50;96.40
2543;DHT22;1116;51.502;7.414;2023-11-21T06:09:27;8.50;96.10
2543;DHT22;1116;51.502;7.414;2023-11-21T06:11:57;8.50;97.00
2543;DHT22;1116;51.502;7.414;2023-11-21T06:14:27;8.60;96.50
2543;DHT22;1116;51.502;7.414;2023-11-21T06:16:57;8.50;96.90
2543;DHT22;1116;51.502;7.414;2023-11-21T06:19:27;8.40;99.90
2543;DHT22;1116;51.502;7.414;2023-11-21T06:21:57;8.40;99.90
2543;DHT22;1116;51.502;7.414;2023-11-21T06:24:31;8.40;99.90
2543;DHT22;1116;51.502;7.414;2023-11-21T06:27:03;8.40;99.90
2543;DHT22;1116;51.502;7.414;2023-11-21T06:29:33;8.50;99.90
2543;DHT22;1116;51.502;7.414;2023-11-21T06:32:04;8.50;99.90
2543;DHT22;1116;51.502;7.414;2023-11-21T06:34:34;8.50;99.90
2543;DHT22;1116;51.502;7.414;2023-11-21T06:37:04;8.40;98.00
2543;DHT22;1116;51.502;7.414;2023-11-21T06:39:37;8.30;96.80
2543;DHT22;1116;51.502;7.414;2023-11-21T06:42:07;8.30;97.40
2543;DHT22;1116;51.502;7.414;2023-11-21T06:44:37;8.30;96.00
2543;DHT22;1116;51.502;7.414;2023-11-21T06:47:08;8.30;96.40
2543;DHT22;1116;51.502;7.414;2023-11-21T06:49:38;8.20;96.70
2543;DHT22;1116;51.502;7.414;2023-11-21T06:52:09;8.10;95.50
2543;DHT22;1116;51.502;7.414;2023-11-21T06:54:41;8.10;95.90
2543;DHT22;1116;51.502;7.414;2023-11-21T06:57:12;8.20;95.90
2543;DHT22;1116;51.502;7.414;2023-11-21T06:59:42;8.10;98.50
2543;DHT22;1116;51.502;7.414;2023-11-21T07:02:12;8.10;96.40
2543;DHT22;1116;51.502;7.414;2023-11-21T07:04:42;8.10;97.20
2543;DHT22;1116;51.502;7.414;2023-11-21T07:07:12;8.20;98.00
2543;DHT22;1116;51.502;7.414;2023-11-21T07:09:46;8.20;96.50
2543;DHT22;1116;51.502;7.414;2023-11-21T07:12:16;8.10;97.40
2543;DHT22;1116;51.502;7.414;2023-11-21T07:14:46;8.20;98.70
2543;DHT22;1116;51.502;7.414;2023-11-21T07:17:16;8.20;98.40
2543;DHT22;1116;51.502;7.414;2023-11-21T07:19:46;8.20;98.80
2543;DHT22;1116;51.502;7.414;2023-11-21T07:22:16;8.20;98.80
2543;DHT22;1116;51.502;7.414;2023-11-21T07:24:51;8.20;99.70
2543;DHT22;1116;51.502;7.414;2023-11-21T07:27:21;8.20;99.90
2543;DHT22;1116;51.502;7.414;2023-11-21T07:29:51;8.30;99.90
2543;DHT22;1116;51.502;7.414;2023-11-21T07:32:21;8.40;99.90
2543;DHT22;1116;51.502;7.414;2023-11-21T07:34:52;8.40;99.90
2543;DHT22;1116;51.502;7.414;2023-11-21T07:37:24;8.40;99.90
2543;DHT22;1116;51.502;7.414;2023-11-21T07:39:58;8.50;99.90
2543;DHT22;1116;51.502;7.414;2023-11-21T07:42:29;8.60;99.90
2543;DHT22;1116;51.502;7.414;2023-11-21T07:44:59;8.60;99.90
2543;DHT22;1116;51.502;7.414;2023-11-21T07:47:29;8.60;99.90
2543;DHT22;1116;51.502;7.414;2023-11-21T07:50:03;8.70;99.90
2543;DHT22;1116;51.502;7.414;2023-11-21T07:52:34;8.70;99.90
2543;DHT22;1116;51.502;7.414;2023-11-21T07:55:07;8.90;99.90
2543;DHT22;1116;51.502;7.414;2023-11-21T07:57:38;8.90;99.90
2543;DHT22;1116;51.502;7.414;2023-11-21T08:00:09;9.00;99.90
2543;DHT22;1116;51.502;7.414;2023-11-21T08:02:39;9.00;99.90
2543;DHT22;1116;51.502;7.414;2023-11-21T08:05:13;9.10;99.90
2543;DHT22;1116;51.502;7.414;2023-11-21T08:07:54;9.20;99.90
2543;DHT22;1116;51.502;7.414;2023-11-21T08:10:26;9.10;99.90
2543;DHT22;1116;51.502;7.414;2023-11-21T08:12:57;9.30;99.90
2543;DHT22;1116;51.502;7.414;2023-11-21T08:15:27;9.40;99.90
2543;DHT22;1116;51.502;7.414;2023-11-21T08:17:58;9.50;99.90
2543;DHT22;1116;51.502;7.414;2023-11-21T08:20:28;9.50;99.90
2543;DHT22;1116;51.502;7.414;2023-11-21T08:22:58;9.60;99.90
2543;DHT22;1116;51.502;7.414;2023-11-21T08:25:32;9.70;99.90
2543;DHT22;1116;51.502;7.414;2023-11-21T08:28:02;9.70;99.90
2543;DHT22;1116;51.502;7.414;2023-11-21T08:30:32;9.80;99.90
2543;DHT22;1116;51.502;7.414;2023-11-21T08:33:02;9.80;99.90
2543;DHT22;1116;51.502;7.414;2023-11-21T08:35:32;9.80;99.90
2543;DHT22;1116;51.502;7.414;2023-11-21T08:38:03;9.80;99.90
2543;DHT22;1116;51.502;7.414;2023-11-21T08:40:39;9.90;99.90
2543;DHT22;1116;51.502;7.414;2023-11-21T08:43:09;9.90;99.90
2543;DHT22;1116;51.502;7.414;2023-11-21T08:45:39;10.00;99.90
2543;DHT22;1116;51.502;7.414;2023-11-21T08:48:09;10.00;99.90
2543;DHT22;1116;51.502;7.414;2023-11-21T08:50:39;10.00;99.90
2543;DHT22;1116;51.502;7.414;2023-11-21T08:53:11;10.00;99.90
2543;DHT22;1116;51.502;7.414;2023-11-21T08:55:44;10.00;99.90
2543;DHT22;1116;51.502;7.414;2023-11-21T08:58:14;10.00;99.90
2543;DHT22;1116;51.502;7.414;2023-11-21T09:00:44;10.10;99.90
2543;DHT22;1116;51.502;7.414;2023-11-21T09:03:14;10.00;99.90
2543;DHT22;1116;51.502;7.414;2023-11-21T09:05:44;10.10;99.90
2543;DHT22;1116;51.502;7.414;2023-11-21T09:08:14;10.10;99.90
2543;DHT22;1116;51.502;7.414;2023-11-21T09:10:46;10.10;99.90
2543;DHT22;1116;51.502;7.414;2023-11-21T09:13:17;10.20;99.90
2543;DHT22;1116;51.502;7.414;2023-11-21T09:15:49;10.20;99.90
2543;DHT22;1116;51.502;7.414;2023-11-21T09:18:19;10.30;99.90
2543;DHT22;1116;51.502;7.414;2023-11-21T09:20:49;10.80;99.90
2543;DHT22;1116;51.502;7.414;2023-11-21T09:23:19;10.40;99.90
2543;DHT22;1116;51.502;7.414;2023-11-21T09:25:52;10.40;99.90
2543;DHT22;1116;51.502;7.414;2023-11-21T09:28:24;10.40;99.90
2543;DHT22;1116;51.502;7.414;2023-11-21T09:30:54;10.40;99.90
2543;DHT22;1116;51.502;7.414;2023-11-21T09:33:24;10.40;99.90
2543;DHT22;1116;51.502;7.414;2023-11-21T09:35:54;10.50;99.90
2543;DHT22;1116;51.502;7.414;2023-11-21T09:38:24;10.50;99.90
2543;DHT22;1116;51.502;7.414;2023-11-21T09:40:58;10.60;99.90
2543;DHT22;1116;51.502;7.414;2023-11-21T09:43:30;10.60;99.90
2543;DHT22;1116;51.502;7.414;2023-11-21T09:46:02;10.50;99.90
2543;DHT22;1116;51.502;7.414;2023-11-21T09:48:39;10.50;99.90
2543;DHT22;1116;51.502;7.414;2023-11-21T09:51:11;10.50;99.90
2543;DHT22;1116;51.502;7.414;2023-11-21T09:53:44;10.60;99.90
2543;DHT22;1116;51.502;7.414;2023-11-21T09:56:19;10.60;99.90
2543;DHT22;1116;51.502;7.414;2023-11-21T09:58:52;10.60;99.90
2543;DHT22;1116;51.502;7.414;2023-11-21T10:01:25;10.60;99.90
2543;DHT22;1116;51.502;7.414;2023-11-21T10:03:56;10.70;99.90
2543;DHT22;1116;51.502;7.414;2023-11-21T10:06:26;10.80;99.90
2543;DHT22;1116;51.502;7.414;2023-11-21T10:08:59;10.80;99.90
2543;DHT22;1116;51.502;7.414;2023-11-21T10:11:33;10.80;99.90
2543;DHT22;1116;51.502;7.414;2023-11-21T10:14:05;10.90;99.90
2543;DHT22;1116;51.502;7.414;2023-11-21T10:16:38;11.00;99.90
2543;DHT22;1116;51.502;7.414;2023-11-21T10:19:10;11.00;99.90
2543;DHT22;1116;51.502;7.414;2023-11-21T10:21:43;11.10;99.90
2543;DHT22;1116;51.502;7.414;2023-11-21T10:24:13;11.10;99.90
2543;DHT22;1116;51.502;7.414;2023-11-21T10:26:46;11.10;99.90
2543;DHT22;1116;51.502;7.414;2023-11-21T10:29:20;11.10;99.90
2543;DHT22;1116;51.502;7.414;2023-11-21T10:31:51;11.10;99.90
2543;DHT22;1116;51.502;7.414;2023-11-21T10:34:24;11.10;99.90
2543;DHT22;1116;51.502;7.414;2023-11-21T10:36:54;11.10;99.90
2543;DHT22;1116;51.502;7.414;2023-11-21T10:39:25;11.20;99.90
2543;DHT22;1116;51.502;7.414;2023-11-21T10:42:00;11.20;99.90
2543;DHT22;1116;51.502;7.414;2023-11-21T10:44:30;11.30;99.90
2543;DHT22;1116;51.502;7.414;2023-11-21T10:47:00;11.40;99.90
2543;DHT22;1116;51.502;7.414;2023-11-21T10:49:30;11.40;99.90
2543;DHT22;1116;51.502;7.414;2023-11-21T10:52:00;11.40;99.90
2543;DHT22;1116;51.502;7.414;2023-11-21T10:54:30;11.40;99.90
2543;DHT22;1116;51.502;7.414;2023-11-21T10:57:06;11.40;99.90
2543;DHT22;1116;51.502;7.414;2023-11-21T10:59:36;11.40;99.90
2543;DHT22;1116;51.502;7.414;2023-11-21T11:02:14;11.40;99.90
2543;DHT22;1116;51.502;7.414;2023-11-21T11:04:49;11.40;99.90
2543;DHT22;1116;51.502;7.414;2023-11-21T11:07:21;11.40;99.90
2543;DHT22;1116;51.502;7.414;2023-11-21T11:09:52;11.50;99.90
2543;DHT22;1116;51.502;7.414;2023-11-21T11:12:25;11.50;99.90
2543;DHT22;1116;51.502;7.414;2023-11-21T11:14:55;11.70;99.90
2543;DHT22;1116;51.502;7.414;2023-11-21T11:17:26;11.50;99.90
2543;DHT22;1116;51.502;7.414;2023-11-21T11:19:57;11.50;99.90
2543;DHT22;1116;51.502;7.414;2023-11-21T11:22:36;11.50;99.90
2543;DHT22;1116;51.502;7.414;2023-11-21T11:25:24;11.60;99.90
2543;DHT22;1116;51.502;7.414;2023-11-21T11:28:04;11.50;99.90
2543;DHT22;1116;51.502;7.414;2023-11-21T11:30:44;11.50;99.90
2543;DHT22;1116;51.502;7.414;2023-11-21T11:33:25;11.40;99.90
2543;DHT22;1116;51.502;7.414;2023-11-21T11:36:05;11.30;99.90
2543;DHT22;1116;51.502;7.414;2023-11-21T11:38:35;11.10;99.90
2543;DHT22;1116;51.502;7.414;2023-11-21T11:41:07;11.10;99.90
2543;DHT22;1116;51.502;7.414;2023-11-21T11:43:40;11.10;99.90
2543;DHT22;1116;51.502;7.414;2023-11-21T11:46:13;11.10;99.90
2543;DHT22;1116;51.502;7.414;2023-11-21T11:48:43;11.10;99.90
2543;DHT22;1116;51.502;7.414;2023-11-21T11:51:14;11.10;99.90
2543;DHT22;1116;51.502;7.414;2023-11-21T11:53:47;11.10;99.90
2543;DHT22;1116;51.502;7.414;2023-11-21T11:56:23;11.00;99.90
2543;DHT22;1116;51.502;7.414;2023-11-21T11:58:57;11.00;99.90
2543;DHT22;1116;51.502;7.414;2023-11-21T12:01:34;10.90;99.90
2543;DHT22;1116;51.502;7.414;2023-11-21T12:04:24;10.90;99.90
2543;DHT22;1116;51.502;7.414;2023-11-21T12:07:03;10.80;99.90
2543;DHT22;1116;51.502;7.414;2023-11-21T12:09:34;10.80;99.90
2543;DHT22;1116;51.502;7.414;2023-11-21T12:12:09;10.80;99.90
2543;DHT22;1116;51.502;7.414;2023-11-21T12:14:42;10.90;99.90
2543;DHT22;1116;51.502;7.414;2023-11-21T12:17:12;10.80;99.90
2543;DHT22;1116;51.502;7.414;2023-11-21T12:19:42;10.80;99.90
2543;DHT22;1116;51.502;7.414;2023-11-21T12:22:13;10.90;99.90
2543;DHT22;1116;51.502;7.414;2023-11-21T12:24:49;10.90;99.90
2543;DHT22;1116;51.502;7.414;2023-11-21T12:27:21;10.80;99.90
2543;DHT22;1116;51.502;7.414;2023-11-21T12:30:25;10.70;99.90
2543;DHT22;1116;51.502;7.414;2023-11-21T12:33:24;10.70;99.90
2543;DHT22;1116;51.502;7.414;2023-11-21T12:35:56;10.80;99.90
2543;DHT22;1116;51.502;7.414;2023-11-21T12:38:33;10.80;99.90
2543;DHT22;1116;51.502;7.414;2023-11-21T12:41:04;10.80;99.90
2543;DHT22;1116;51.502;7.414;2023-11-21T12:43:34;10.90;99.90
2543;DHT22;1116;51.502;7.414;2023-11-21T12:46:10;10.90;99.90
2543;DHT22;1116;51.502;7.414;2023-11-21T12:48:55;10.80;99.90
2543;DHT22;1116;51.502;7.414;2023-11-21T12:51:27;10.90;99.90
2543;DHT22;1116;51.502;7.414;2023-11-21T12:53:57;10.90;99.90
2543;DHT22;1116;51.502;7.414;2023-11-21T12:56:27;10.90;99.90
2543;DHT22;1116;51.502;7.414;2023-11-21T12:58:57;10.80;99.90
2543;DHT22;1116;51.502;7.414;2023-11-21T13:01:34;10.70;99.90
2543;DHT22;1116;51.502;7.414;2023-11-21T13:04:08;10.70;99.90
2543;DHT22;1116;51.502;7.414;2023-11-21T13:06:39;10.60;99.90
2543;DHT22;1116;51.502;7.414;2023-11-21T13:09:10;10.70;99.90
2543;DHT22;1116;51.502;7.414;2023-11-21T13:11:47;10.80;99.90
2543;DHT22;1116;51.502;7.414;2023-11-21T13:14:29;10.80;99.90
2543;DHT22;1116;51.502;7.414;2023-11-21T13:17:01;10.60;99.90
2543;DHT22;1116;51.502;7.414;2023-11-21T13:19:46;10.40;99.90
2543;DHT22;1116;51.502;7.414;2023-11-21T13:22:47;10.40;99.90
2543;DHT22;1116;51.502;7.414;2023-11-21T13:25:31;10.40;99.90
2543;DHT22;1116;51.502;7.414;2023-11-21T13:28:50;10.40;99.90
2543;DHT22;1116;51.502;7.414;2023-11-21T13:34:51;10.40;99.90
2543;DHT22;1116;51.502;7.414;2023-11-21T13:37:24;10.40;99.90
2543;DHT22;1116;51.502;7.414;2023-11-21T13:39:55;10.50;99.90
2543;DHT22;1116;51.502;7.414;2023-11-21T13:42:25;10.50;99.90
2543;DHT22;1116;51.502;7.414;2023-11-21T13:44:56;10.50;99.90
2543;DHT22;1116;51.502;7.414;2023-11-21T13:47:26;10.50;99.90
2543;DHT22;1116;51.502;7.414;2023-11-21T13:50:00;10.60;99.90
2543;DHT22;1116;51.502;7.414;2023-11-21T13:52:30;10.50;99.90
2543;DHT22;1116;51.502;7.414;2023-11-21T13:55:02;10.40;99.90
2543;DHT22;1116;51.502;7.414;2023-11-21T13:57:38;10.40;99.90
2543;DHT22;1116;51.502;7.414;2023-11-21T14:00:12;10.40;99.90
2543;DHT22;1116;51.502;7.414;2023-11-21T14:03:03;10.30;99.90
2543;DHT22;1116;51.502;7.414;2023-11-21T14:05:40;10.20;99.90
2543;DHT22;1116;51.502;7.414;2023-11-21T14:08:11;10.20;99.90
2543;DHT22;1116;51.502;7.414;2023-11-21T14:10:43;10.20;99.90
2543;DHT22;1116;51.502;7.414;2023-11-21T14:13:17;10.20;99.90
2543;DHT22;1116;51.502;7.414;2023-11-21T14:15:48;10.30;99.90
2543;DHT22;1116;51.502;7.414;2023-11-21T14:18:24;10.30;99.90
2543;DHT22;1116;51.502;7.414;2023-11-21T14:21:04;10.30;99.90
2543;DHT22;1116;51.502;7.414;2023-11-21T14:23:35;10.40;99.90
2543;DHT22;1116;51.502;7.414;2023-11-21T14:26:06;10.30;99.90
2543;DHT22;1116;51.502;7.414;2023-11-21T14:28:36;10.20;99.90
2543;DHT22;1116;51.502;7.414;2023-11-21T14:31:06;10.10;99.90
2543;DHT22;1116;51.502;7.414;2023-11-21T14:33:40;10.10;99.90
2543;DHT22;1116;51.502;7.414;2023-11-21T14:36:12;10.00;99.90
2543;DHT22;1116;51.502;7.414;2023-11-21T14:38:44;10.00;99.90
2543;DHT22;1116;51.502;7.414;2023-11-21T14:41:14;10.10;99.90
2543;DHT22;1116;51.502;7.414;2023-11-21T14:43:44;10.10;99.90
2543;DHT22;1116;51.502;7.414;2023-11-21T14:46:16;10.30;99.90
2543;DHT22;1116;51.502;7.414;2023-11-21T14:48:46;10.00;99.90
2543;DHT22;1116;51.502;7.414;2023-11-21T14:51:30;10.00;99.90
2543;DHT22;1116;51.502;7.414;2023-11-21T14:54:17;9.90;99.90
2543;DHT22;1116;51.502;7.414;2023-11-21T14:56:53;10.00;99.90
2543;DHT22;1116;51.502;7.414;2023-11-21T14:59:23;9.90;99.90
2543;DHT22;1116;51.502;7.414;2023-11-21T15:01:50;9.90;99.90
2543;DHT22;1116;51.502;7.414;2023-11-21T15:04:23;9.90;99.90
2543;DHT22;1116;51.502;7.414;2023-11-21T15:07:06;9.80;99.90
2543;DHT22;1116;51.502;7.414;2023-11-21T15:09:36;9.90;99.90
2543;DHT22;1116;51.502;7.414;2023-11-21T15:12:08;9.90;99.90
2543;DHT22;1116;51.502;7.414;2023-11-21T15:14:48;9.80;99.90
2543;DHT22;1116;51.502;7.414;2023-11-21T15:17:21;9.80;99.90
2543;DHT22;1116;51.502;7.414;2023-11-21T15:19:54;9.80;99.90
2543;DHT22;1116;51.502;7.414;2023-11-21T15:22:27;9.80;99.90
2543;DHT22;1116;51.502;7.414;2023-11-21T15:24:57;9.70;99.90
2543;DHT22;1116;51.502;7.414;2023-11-21T15:27:31;9.60;99.90
2543;DHT22;1116;51.502;7.414;2023-11-21T15:30:01;9.60;99.90
2543;DHT22;1116;51.502;7.414;2023-11-21T15:32:31;9.70;99.90
2543;DHT22;1116;51.502;7.414;2023-11-21T15:35:01;9.60;99.90
2543;DHT22;1116;51.502;7.414;2023-11-21T15:37:33;9.50;99.90
2543;DHT22;1116;51.502;7.414;2023-11-21T15:40:05;9.30;99.90
2543;DHT22;1116;51.502;7.414;2023-11-21T15:42:36;9.20;99.90
2543;DHT22;1116;51.502;7.414;2023-11-21T15:45:07;8.90;99.90
2543;DHT22;1116;51.502;7.414;2023-11-21T15:47:37;8.80;99.90
2543;DHT22;1116;51.502;7.414;2023-11-21T15:50:08;8.70;99.90
2543;DHT22;1116;51.502;7.414;2023-11-21T15:52:41;8.70;99.90
2543;DHT22;1116;51.502;7.414;2023-11-21T15:55:24;8.80;99.90
2543;DHT22;1116;51.502;7.414;2023-11-21T15:57:54;8.90;99.90
2543;DHT22;1116;51.502;7.414;2023-11-21T16:00:24;8.90;99.90
2543;DHT22;1116;51.502;7.414;2023-11-21T16:02:54;9.00;99.90
2543;DHT22;1116;51.502;7.414;2023-11-21T16:05:25;9.10;99.90
2543;DHT22;1116;51.502;7.414;2023-11-21T16:07:57;9.00;99.90
2543;DHT22;1116;51.502;7.414;2023-11-21T16:10:27;8.90;99.90
2543;DHT22;1116;51.502;7.414;2023-11-21T16:12:57;8.80;99.90
2543;DHT22;1116;51.502;7.414;2023-11-21T16:15:27;8.60;99.90
2543;DHT22;1116;51.502;7.414;2023-11-21T16:17:57;8.90;99.90
2543;DHT22;1116;51.502;7.414;2023-11-21T16:20:27;8.40;99.90
2543;DHT22;1116;51.502;7.414;2023-11-21T16:23:00;8.50;99.90
2543;DHT22;1116;51.502;7.414;2023-11-21T16:25:30;8.40;99.90
2543;DHT22;1116;51.502;7.414;2023-11-21T16:28:00;8.30;99.90
2543;DHT22;1116;51.502;7.414;2023-11-21T16:30:31;8.30;99.90
2543;DHT22;1116;51.502;7.414;2023-11-21T16:33:02;8.30;99.90
2543;DHT22;1116;51.502;7.414;2023-11-21T16:35:32;8.30;99.90
2543;DHT22;1116;51.502;7.414;2023-11-21T16:38:11;8.30;99.90
2543;DHT22;1116;51.502;7.414;2023-11-21T16:40:42;8.30;99.90
2543;DHT22;1116;51.502;7.414;2023-11-21T16:43:13;8.40;99.90
2543;DHT22;1116;51.502;7.414;2023-11-21T16:45:50;8.40;99.90
2543;DHT22;1116;51.502;7.414;2023-11-21T16:48:24;8.20;99.90